sensor_id;sensor_type;location;lat;lon;timestamp;pressure;altitude;pressure_sealevel;temperature;humidity
17054;BME280;8643;48.824;11.422;2023-03-13T00:01:38;96569.59;;;3.34;100.00
17054;BME280;8643;48.824;11.422;2023-03-13T00:04:07;96576.16;;;3.28;100.00
17054;BME280;8643;48.824;11.422;2023-03-13T00:06:38;96563.00;;;3.21;100.00
17054;BME280;8643;48.824;11.422;2023-03-13T00:09:11;96567.59;;;3.21;100.00
17054;BME280;8643;48.824;11.422;2023-03-13T00:11:40;96561.19;;;3.17;100.00
17054;BME280;8643;48.824;11.422;2023-03-13T00:14:09;96565.25;;;3.14;100.00
17054;BME280;8643;48.824;11.422;2023-03-13T00:16:38;96562.06;;;3.12;100.00
17054;BME280;8643;48.824;11.422;2023-03-13T00:19:07;96557.81;;;3.06;100.00
17054;BME280;8643;48.824;11.422;2023-03-13T00:21:37;96558.59;;;3.06;100.00
17054;BME280;8643;48.824;11.422;2023-03-13T00:24:10;96540.94;;;2.95;100.00
17054;BME280;8643;48.824;11.422;2023-03-13T00:26:39;96549.72;;;2.87;100.00
17054;BME280;8643;48.824;11.422;2023-03-13T00:29:07;96542.69;;;2.86;100.00
17054;BME280;8643;48.824;11.422;2023-03-13T00:31:36;96542.47;;;2.82;100.00
17054;BME280;8643;48.824;11.422;2023-03-13T00:34:05;96554.16;;;2.78;100.00
17054;BME280;8643;48.824;11.422;2023-03-13T00:36:36;96541.22;;;2.74;100.00
17054;BME280;8643;48.824;11.422;2023-03-13T00:39:05;96535.94;;;2.64;100.00
17054;BME280;8643;48.824;11.422;2023-03-13T00:41:36;96525.72;;;2.61;100.00
17054;BME280;8643;48.824;11.422;2023-03-13T00:44:05;96513.06;;;2.94;100.00
17054;BME280;8643;48.824;11.422;2023-03-13T00:46:35;96511.78;;;2.92;100.00
17054;BME280;8643;48.824;11.422;2023-03-13T00:49:04;96512.44;;;2.84;100.00
17054;BME280;8643;48.824;11.422;2023-03-13T00:51:33;96517.59;;;2.80;100.00
17054;BME280;8643;48.824;11.422;2023-03-13T00:54:07;96515.25;;;2.73;100.00
17054;BME280;8643;48.824;11.422;2023-03-13T00:56:36;96518.50;;;2.75;100.00
17054;BME280;8643;48.824;11.422;2023-03-13T00:59:04;96514.16;;;2.74;100.00
17054;BME280;8643;48.824;11.422;2023-03-13T01:01:35;96524.19;;;2.74;100.00
17054;BME280;8643;48.824;11.422;2023-03-13T01:04:06;96517.44;;;2.71;100.00
17054;BME280;8643;48.824;11.422;2023-03-13T01:06:38;96501.31;;;2.66;100.00
17054;BME280;8643;48.824;11.422;2023-03-13T01:09:13;96512.47;;;2.60;100.00
17054;BME280;8643;48.824;11.422;2023-03-13T01:11:44;96500.63;;;2.55;100.00
17054;BME280;8643;48.824;11.422;2023-03-13T01:14:16;96497.63;;;2.57;100.00
17054;BME280;8643;48.824;11.422;2023-03-13T01:16:45;96502.25;;;2.56;100.00
17054;BME280;8643;48.824;11.422;2023-03-13T01:19:15;96503.25;;;2.61;100.00
17054;BME280;8643;48.824;11.422;2023-03-13T01:21:45;96505.97;;;2.61;100.00
17054;BME280;8643;48.824;11.422;2023-03-13T01:24:15;96507.88;;;2.60;100.00
17054;BME280;8643;48.824;11.422;2023-03-13T01:26:45;96507.28;;;2.63;100.00
17054;BME280;8643;48.824;11.422;2023-03-13T01:29:15;96504.28;;;2.65;100.00
17054;BME280;8643;48.824;11.422;2023-03-13T01:31:43;96489.25;;;2.59;100.00
17054;BME280;8643;48.824;11.422;2023-03-13T01:34:12;96488.81;;;2.51;100.00
17054;BME280;8643;48.824;11.422;2023-03-13T01:36:40;96487.41;;;2.54;100.00
17054;BME280;8643;48.824;11.422;2023-03-13T01:39:09;96482.56;;;2.51;100.00
17054;BME280;8643;48.824;11.422;2023-03-13T01:41:39;96479.88;;;2.51;100.00
17054;BME280;8643;48.824;11.422;2023-03-13T01:44:21;96476.66;;;2.49;100.00
17054;BME280;8643;48.824;11.422;2023-03-13T01:46:51;96472.47;;;2.37;100.00
17054;BME280;8643;48.824;11.422;2023-03-13T01:49:23;96477.66;;;2.34;100.00
17054;BME280;8643;48.824;11.422;2023-03-13T01:52:19;96477.44;;;2.30;100.00
17054;BME280;8643;48.824;11.422;2023-03-13T01:55:12;96472.19;;;2.20;100.00
17054;BME280;8643;48.824;11.422;2023-03-13T01:57:51;96469.53;;;2.15;100.00
17054;BME280;8643;48.824;11.422;2023-03-13T02:00:26;96458.06;;;2.04;100.00
17054;BME280;8643;48.824;11.422;2023-03-13T02:03:03;96455.44;;;1.94;100.00
17054;BME280;8643;48.824;11.422;2023-03-13T02:05:35;96458.69;;;1.96;100.00
17054;BME280;8643;48.824;11.422;2023-03-13T02:08:10;96457.00;;;2.00;100.00
17054;BME280;8643;48.824;11.422;2023-03-13T02:10:49;96461.84;;;2.03;100.00
17054;BME280;8643;48.824;11.422;2023-03-13T02:13:22;96465.28;;;2.09;100.00
17054;BME280;8643;48.824;11.422;2023-03-13T02:15:50;96459.00;;;2.13;100.00
17054;BME280;8643;48.824;11.422;2023-03-13T02:18:19;96447.69;;;2.11;100.00
17054;BME280;8643;48.824;11.422;2023-03-13T02:20:52;96450.41;;;2.11;100.00
17054;BME280;8643;48.824;11.422;2023-03-13T02:23:31;96444.13;;;2.16;100.00
17054;BME280;8643;48.824;11.422;2023-03-13T02:26:05;96441.94;;;2.18;100.00
17054;BME280;8643;48.824;11.422;2023-03-13T02:28:37;96441.94;;;2.18;100.00
17054;BME280;8643;48.824;11.422;2023-03-13T02:31:12;96448.38;;;2.22;100.00
17054;BME280;8643;48.824;11.422;2023-03-13T02:33:42;96438.59;;;2.26;100.00
17054;BME280;8643;48.824;11.422;2023-03-13T02:36:16;96437.22;;;2.29;100.00
17054;BME280;8643;48.824;11.422;2023-03-13T02:38:52;96434.06;;;2.41;100.00
17054;BME280;8643;48.824;11.422;2023-03-13T02:41:25;96433.72;;;2.47;100.00
17054;BME280;8643;48.824;11.422;2023-03-13T02:43:56;96439.78;;;2.58;100.00
17054;BME280;8643;48.824;11.422;2023-03-13T02:46:25;96436.34;;;2.52;100.00
17054;BME280;8643;48.824;11.422;2023-03-13T02:48:55;96439.50;;;2.60;100.00
17054;BME280;8643;48.824;11.422;2023-03-13T02:51:31;96433.59;;;2.58;100.00
17054;BME280;8643;48.824;11.422;2023-03-13T02:54:06;96428.31;;;2.66;100.00
17054;BME280;8643;48.824;11.422;2023-03-13T02:56:40;96423.63;;;2.72;100.00
17054;BME280;8643;48.824;11.422;2023-03-13T02:59:14;96431.44;;;2.73;100.00
17054;BME280;8643;48.824;11.422;2023-03-13T03:01:45;96435.75;;;2.74;100.00
17054;BME280;8643;48.824;11.422;2023-03-13T03:04:13;96433.56;;;2.77;100.00
17054;BME280;8643;48.824;11.422;2023-03-13T03:06:41;96437.88;;;2.78;100.00
17054;BME280;8643;48.824;11.422;2023-03-13T03:09:13;96426.63;;;2.70;100.00
17054;BME280;8643;48.824;11.422;2023-03-13T03:11:44;96419.69;;;2.64;100.00
17054;BME280;8643;48.824;11.422;2023-03-13T03:14:15;96428.31;;;2.66;100.00
17054;BME280;8643;48.824;11.422;2023-03-13T03:16:46;96423.41;;;2.68;100.00
17054;BME280;8643;48.824;11.422;2023-03-13T03:19:15;96426.31;;;2.72;100.00
17054;BME280;8643;48.824;11.422;2023-03-13T03:21:43;96424.44;;;2.72;100.00
17054;BME280;8643;48.824;11.422;2023-03-13T03:24:12;96425.44;;;2.77;100.00
17054;BME280;8643;48.824;11.422;2023-03-13T03:26:40;96415.13;;;2.79;100.00
17054;BME280;8643;48.824;11.422;2023-03-13T03:29:17;96416.97;;;2.83;100.00
17054;BME280;8643;48.824;11.422;2023-03-13T03:31:49;96415.59;;;2.86;100.00
17054;BME280;8643;48.824;11.422;2023-03-13T03:34:18;96409.50;;;2.94;100.00
17054;BME280;8643;48.824;11.422;2023-03-13T03:36:47;96402.91;;;3.00;100.00
17054;BME280;8643;48.824;11.422;2023-03-13T03:39:19;96403.22;;;2.99;100.00
17054;BME280;8643;48.824;11.422;2023-03-13T03:41:48;96402.09;;;3.00;100.00
17054;BME280;8643;48.824;11.422;2023-03-13T03:44:18;96390.19;;;3.01;100.00
17054;BME280;8643;48.824;11.422;2023-03-13T03:46:52;96386.09;;;3.03;100.00
17054;BME280;8643;48.824;11.422;2023-03-13T03:49:26;96391.41;;;3.08;100.00
17054;BME280;8643;48.824;11.422;2023-03-13T03:51:54;96387.59;;;3.09;100.00
17054;BME280;8643;48.824;11.422;2023-03-13T03:54:28;96376.78;;;3.09;100.00
17054;BME280;8643;48.824;11.422;2023-03-13T03:56:58;96369.47;;;3.10;100.00
17054;BME280;8643;48.824;11.422;2023-03-13T03:59:28;96372.19;;;3.24;100.00
17054;BME280;8643;48.824;11.422;2023-03-13T04:02:07;96379.72;;;3.27;100.00
17054;BME280;8643;48.824;11.422;2023-03-13T04:04:41;96368.09;;;3.26;100.00
17054;BME280;8643;48.824;11.422;2023-03-13T04:07:14;96368.09;;;3.26;100.00
17054;BME280;8643;48.824;11.422;2023-03-13T04:09:43;96360.88;;;3.22;100.00
17054;BME280;8643;48.824;11.422;2023-03-13T04:12:20;96359.84;;;3.18;100.00
17054;BME280;8643;48.824;11.422;2023-03-13T04:14:52;96352.44;;;3.09;100.00
17054;BME280;8643;48.824;11.422;2023-03-13T04:17:21;96348.44;;;3.07;100.00
17054;BME280;8643;48.824;11.422;2023-03-13T04:19:49;96338.91;;;3.09;100.00
17054;BME280;8643;48.824;11.422;2023-03-13T04:22:17;96347.25;;;3.13;100.00
17054;BME280;8643;48.824;11.422;2023-03-13T04:24:50;96349.94;;;3.13;100.00
17054;BME280;8643;48.824;11.422;2023-03-13T04:27:20;96343.81;;;3.07;100.00
17054;BME280;8643;48.824;11.422;2023-03-13T04:29:51;96345.44;;;3.08;100.00
17054;BME280;8643;48.824;11.422;2023-03-13T04:32:35;96338.84;;;3.28;100.00
17054;BME280;8643;48.824;11.422;2023-03-13T04:35:31;96334.25;;;3.43;100.00
17054;BME280;8643;48.824;11.422;2023-03-13T04:38:22;96326.91;;;3.43;100.00
17054;BME280;8643;48.824;11.422;2023-03-13T04:41:14;96328.81;;;3.43;100.00
17054;BME280;8643;48.824;11.422;2023-03-13T04:43:50;96325.72;;;3.49;100.00
17054;BME280;8643;48.824;11.422;2023-03-13T04:46:47;96309.84;;;3.57;100.00
17054;BME280;8643;48.824;11.422;2023-03-13T04:49:29;96309.56;;;3.58;100.00
17054;BME280;8643;48.824;11.422;2023-03-13T04:52:08;96307.78;;;3.54;100.00
17054;BME280;8643;48.824;11.422;2023-03-13T04:55:08;96308.09;;;3.52;100.00
17054;BME280;8643;48.824;11.422;2023-03-13T04:57:55;96303.56;;;3.47;100.00
17054;BME280;8643;48.824;11.422;2023-03-13T05:00:44;96310.56;;;3.48;100.00
17054;BME280;8643;48.824;11.422;2023-03-13T05:03:30;96297.84;;;3.49;100.00
17054;BME280;8643;48.824;11.422;2023-03-13T05:06:08;96298.72;;;3.58;100.00
17054;BME280;8643;48.824;11.422;2023-03-13T05:09:14;96294.09;;;3.73;100.00
17054;BME280;8643;48.824;11.422;2023-03-13T05:11:55;96291.88;;;3.75;100.00
17054;BME280;8643;48.824;11.422;2023-03-13T05:14:52;96282.47;;;3.72;100.00
17054;BME280;8643;48.824;11.422;2023-03-13T05:17:41;96285.19;;;3.72;100.00
17054;BME280;8643;48.824;11.422;2023-03-13T05:20:22;96285.44;;;3.84;100.00
17054;BME280;8643;48.824;11.422;2023-03-13T05:23:07;96284.97;;;3.82;100.00
17054;BME280;8643;48.824;11.422;2023-03-13T05:25:54;96282.25;;;3.82;100.00
17054;BME280;8643;48.824;11.422;2023-03-13T05:28:40;96274.13;;;3.82;100.00
17054;BME280;8643;48.824;11.422;2023-03-13T05:31:14;96276.84;;;3.82;100.00
17054;BME280;8643;48.824;11.422;2023-03-13T05:34:00;96259.19;;;3.85;100.00
17054;BME280;8643;48.824;11.422;2023-03-13T05:36:48;96253.97;;;3.89;100.00
17054;BME280;8643;48.824;11.422;2023-03-13T05:39:34;96257.03;;;3.96;100.00
17054;BME280;8643;48.824;11.422;2023-03-13T05:42:25;96253.91;;;4.02;100.00
17054;BME280;8643;48.824;11.422;2023-03-13T05:45:20;96267.16;;;4.04;100.00
17054;BME280;8643;48.824;11.422;2023-03-13T05:48:18;96267.34;;;4.08;100.00
17054;BME280;8643;48.824;11.422;2023-03-13T05:51:15;96275.06;;;4.14;100.00
17054;BME280;8643;48.824;11.422;2023-03-13T05:54:14;96273.16;;;4.15;100.00
17054;BME280;8643;48.824;11.422;2023-03-13T05:57:03;96254.88;;;4.20;100.00
17054;BME280;8643;48.824;11.422;2023-03-13T05:59:50;96252.44;;;4.41;100.00
17054;BME280;8643;48.824;11.422;2023-03-13T06:02:38;96273.34;;;4.41;100.00
17054;BME280;8643;48.824;11.422;2023-03-13T06:05:10;96274.03;;;4.47;100.00
17054;BME280;8643;48.824;11.422;2023-03-13T06:07:38;96265.16;;;4.55;100.00
17054;BME280;8643;48.824;11.422;2023-03-13T06:10:11;96250.03;;;4.63;100.00
17054;BME280;8643;48.824;11.422;2023-03-13T06:12:40;96245.75;;;4.62;100.00
17054;BME280;8643;48.824;11.422;2023-03-13T06:15:11;96238.69;;;4.61;100.00
17054;BME280;8643;48.824;11.422;2023-03-13T06:17:59;96232.97;;;4.62;100.00
17054;BME280;8643;48.824;11.422;2023-03-13T06:20:27;96226.44;;;4.63;100.00
17054;BME280;8643;48.824;11.422;2023-03-13T06:22:56;96236.97;;;4.65;100.00
17054;BME280;8643;48.824;11.422;2023-03-13T06:25:26;96232.66;;;4.64;100.00
17054;BME280;8643;48.824;11.422;2023-03-13T06:27:55;96227.09;;;4.69;100.00
17054;BME280;8643;48.824;11.422;2023-03-13T06:30:23;96232.69;;;4.72;100.00
17054;BME280;8643;48.824;11.422;2023-03-13T06:32:52;96237.69;;;4.79;100.00
17054;BME280;8643;48.824;11.422;2023-03-13T06:35:21;96231.00;;;4.85;100.00
17054;BME280;8643;48.824;11.422;2023-03-13T06:37:49;96235.50;;;4.90;100.00
17054;BME280;8643;48.824;11.422;2023-03-13T06:40:18;96232.34;;;4.96;100.00
17054;BME280;8643;48.824;11.422;2023-03-13T06:42:48;96228.03;;;4.95;100.00
17054;BME280;8643;48.824;11.422;2023-03-13T06:45:17;96234.41;;;4.91;100.00
17054;BME280;8643;48.824;11.422;2023-03-13T06:47:46;96230.69;;;4.87;100.00
17054;BME280;8643;48.824;11.422;2023-03-13T06:50:18;96229.91;;;4.86;100.00
17054;BME280;8643;48.824;11.422;2023-03-13T06:52:47;96227.53;;;4.93;100.00
17054;BME280;8643;48.824;11.422;2023-03-13T06:55:16;96227.91;;;5.01;100.00
17054;BME280;8643;48.824;11.422;2023-03-13T06:57:49;96218.00;;;5.05;100.00
17054;BME280;8643;48.824;11.422;2023-03-13T07:00:19;96220.78;;;5.13;100.00
17054;BME280;8643;48.824;11.422;2023-03-13T07:02:49;96212.66;;;5.22;100.00
17054;BME280;8643;48.824;11.422;2023-03-13T07:05:17;96212.97;;;5.29;100.00
17054;BME280;8643;48.824;11.422;2023-03-13T07:07:46;96202.47;;;5.37;100.00
17054;BME280;8643;48.824;11.422;2023-03-13T07:10:18;96198.00;;;5.41;100.00
17054;BME280;8643;48.824;11.422;2023-03-13T07:12:47;96204.56;;;5.40;100.00
17054;BME280;8643;48.824;11.422;2023-03-13T07:15:17;96198.81;;;5.41;100.00
17054;BME280;8643;48.824;11.422;2023-03-13T07:17:46;96198.81;;;5.50;100.00
17054;BME280;8643;48.824;11.422;2023-03-13T07:20:14;96194.03;;;5.56;100.00
17054;BME280;8643;48.824;11.422;2023-03-13T07:22:43;96185.44;;;5.62;100.00
17054;BME280;8643;48.824;11.422;2023-03-13T07:25:18;96190.69;;;5.67;100.00
17054;BME280;8643;48.824;11.422;2023-03-13T07:27:50;96188.63;;;5.73;100.00
17054;BME280;8643;48.824;11.422;2023-03-13T07:30:21;96192.78;;;5.88;100.00
17054;BME280;8643;48.824;11.422;2023-03-13T07:32:49;96190.09;;;5.97;100.00
17054;BME280;8643;48.824;11.422;2023-03-13T07:35:18;96191.69;;;6.07;100.00
17054;BME280;8643;48.824;11.422;2023-03-13T07:37:47;96192.31;;;6.12;100.00
17054;BME280;8643;48.824;11.422;2023-03-13T07:40:16;96184.78;;;6.27;100.00
17054;BME280;8643;48.824;11.422;2023-03-13T07:42:44;96189.88;;;6.54;100.00
17054;BME280;8643;48.824;11.422;2023-03-13T07:45:13;96189.31;;;6.78;100.00
17054;BME280;8643;48.824;11.422;2023-03-13T07:47:43;96188.31;;;6.92;100.00
17054;BME280;8643;48.824;11.422;2023-03-13T07:50:15;96191.44;;;7.11;100.00
17054;BME280;8643;48.824;11.422;2023-03-13T07:52:44;96191.94;;;7.34;100.00
17054;BME280;8643;48.824;11.422;2023-03-13T07:55:13;96195.50;;;7.35;100.00
17054;BME280;8643;48.824;11.422;2023-03-13T07:57:41;96189.53;;;7.42;100.00
17054;BME280;8643;48.824;11.422;2023-03-13T08:00:11;96190.88;;;7.57;100.00
17054;BME280;8643;48.824;11.422;2023-03-13T08:02:44;96188.97;;;8.33;100.00
17054;BME280;8643;48.824;11.422;2023-03-13T08:05:13;96192.25;;;9.05;100.00
17054;BME280;8643;48.824;11.422;2023-03-13T08:07:43;96193.25;;;10.56;100.00
17054;BME280;8643;48.824;11.422;2023-03-13T08:10:12;96192.78;;;10.98;100.00
17054;BME280;8643;48.824;11.422;2023-03-13T08:12:40;96198.69;;;11.64;100.00
17054;BME280;8643;48.824;11.422;2023-03-13T08:15:09;96201.31;;;11.76;100.00
17054;BME280;8643;48.824;11.422;2023-03-13T08:17:38;96197.00;;;11.59;100.00
17054;BME280;8643;48.824;11.422;2023-03-13T08:20:10;96199.41;;;11.29;100.00
17054;BME280;8643;48.824;11.422;2023-03-13T08:22:38;96192.44;;;10.99;100.00
17054;BME280;8643;48.824;11.422;2023-03-13T08:25:07;96198.88;;;11.39;100.00
17054;BME280;8643;48.824;11.422;2023-03-13T08:27:36;96198.56;;;11.76;100.00
17054;BME280;8643;48.824;11.422;2023-03-13T08:30:06;96196.84;;;11.87;100.00
17054;BME280;8643;48.824;11.422;2023-03-13T08:32:36;96192.22;;;12.27;100.00
17054;BME280;8643;48.824;11.422;2023-03-13T08:35:05;96180.38;;;11.87;100.00
17054;BME280;8643;48.824;11.422;2023-03-13T08:37:35;96187.22;;;11.94;100.00
17054;BME280;8643;48.824;11.422;2023-03-13T08:40:06;96174.25;;;11.59;100.00
17054;BME280;8643;48.824;11.422;2023-03-13T08:42:38;96170.78;;;11.10;100.00
17054;BME280;8643;48.824;11.422;2023-03-13T08:45:08;96171.25;;;10.24;100.00
17054;BME280;8643;48.824;11.422;2023-03-13T08:47:36;96174.47;;;10.14;100.00
17054;BME280;8643;48.824;11.422;2023-03-13T08:50:06;96181.34;;;10.07;100.00
17054;BME280;8643;48.824;11.422;2023-03-13T08:52:36;96175.19;;;10.11;100.00
17054;BME280;8643;48.824;11.422;2023-03-13T08:55:06;96167.78;;;9.99;100.00
17054;BME280;8643;48.824;11.422;2023-03-13T08:57:35;96164.84;;;10.32;100.00
17054;BME280;8643;48.824;11.422;2023-03-13T09:00:05;96162.25;;;10.52;100.00
17054;BME280;8643;48.824;11.422;2023-03-13T09:02:34;96164.56;;;10.66;100.00
17054;BME280;8643;48.824;11.422;2023-03-13T09:05:03;96169.78;;;10.87;100.00
17054;BME280;8643;48.824;11.422;2023-03-13T09:07:32;96152.50;;;10.82;100.00
17054;BME280;8643;48.824;11.422;2023-03-13T09:10:02;96154.25;;;10.91;100.00
17054;BME280;8643;48.824;11.422;2023-03-13T09:12:31;96156.81;;;10.83;100.00
17054;BME280;8643;48.824;11.422;2023-03-13T09:15:00;96153.00;;;10.72;100.00
17054;BME280;8643;48.824;11.422;2023-03-13T09:17:32;96143.66;;;10.73;100.00
17054;BME280;8643;48.824;11.422;2023-03-13T09:20:01;96134.44;;;10.66;100.00
17054;BME280;8643;48.824;11.422;2023-03-13T09:22:30;96134.19;;;10.55;100.00
17054;BME280;8643;48.824;11.422;2023-03-13T09:25:05;96131.25;;;10.48;100.00
17054;BME280;8643;48.824;11.422;2023-03-13T09:27:33;96122.50;;;10.42;100.00
17054;BME280;8643;48.824;11.422;2023-03-13T09:30:02;96126.97;;;10.34;100.00
17054;BME280;8643;48.824;11.422;2023-03-13T09:32:31;96125.69;;;10.16;100.00
17054;BME280;8643;48.824;11.422;2023-03-13T09:35:00;96126.81;;;10.15;100.00
17054;BME280;8643;48.824;11.422;2023-03-13T09:37:28;96135.97;;;10.06;100.00
17054;BME280;8643;48.824;11.422;2023-03-13T09:39:57;96133.75;;;9.96;100.00
17054;BME280;8643;48.824;11.422;2023-03-13T09:42:39;96125.78;;;9.91;100.00
17054;BME280;8643;48.824;11.422;2023-03-13T09:45:17;96127.59;;;9.87;100.00
17054;BME280;8643;48.824;11.422;2023-03-13T09:47:51;96125.81;;;9.79;100.00
17054;BME280;8643;48.824;11.422;2023-03-13T09:50:27;96123.31;;;9.73;100.00
17054;BME280;8643;48.824;11.422;2023-03-13T09:53:04;96110.00;;;9.72;100.00
17054;BME280;8643;48.824;11.422;2023-03-13T09:55:42;96112.28;;;9.70;100.00
17054;BME280;8643;48.824;11.422;2023-03-13T09:58:20;96116.25;;;9.72;100.00
17054;BME280;8643;48.824;11.422;2023-03-13T10:00:53;96112.13;;;9.79;100.00
17054;BME280;8643;48.824;11.422;2023-03-13T10:03:29;96108.44;;;9.99;100.00
17054;BME280;8643;48.824;11.422;2023-03-13T10:06:03;96112.63;;;10.25;100.00
17054;BME280;8643;48.824;11.422;2023-03-13T10:08:35;96103.25;;;10.54;100.00
17054;BME280;8643;48.824;11.422;2023-03-13T10:11:10;96099.91;;;10.93;100.00
17054;BME280;8643;48.824;11.422;2023-03-13T10:13:48;96102.00;;;11.31;100.00
17054;BME280;8643;48.824;11.422;2023-03-13T10:16:25;96104.63;;;11.63;100.00
17054;BME280;8643;48.824;11.422;2023-03-13T10:19:11;96097.69;;;12.05;100.00
17054;BME280;8643;48.824;11.422;2023-03-13T10:21:46;96098.09;;;12.26;100.00
17054;BME280;8643;48.824;11.422;2023-03-13T10:24:32;96094.25;;;12.74;100.00
17054;BME280;8643;48.824;11.422;2023-03-13T10:27:01;96100.28;;;13.06;100.00
17054;BME280;8643;48.824;11.422;2023-03-13T10:29:31;96093.63;;;13.07;100.00
17054;BME280;8643;48.824;11.422;2023-03-13T10:32:02;96106.78;;;13.21;100.00
17054;BME280;8643;48.824;11.422;2023-03-13T10:34:51;96105.31;;;13.81;100.00
17054;BME280;8643;48.824;11.422;2023-03-13T10:37:24;96099.16;;;14.25;100.00
17054;BME280;8643;48.824;11.422;2023-03-13T10:39:53;96099.22;;;15.70;100.00
17054;BME280;8643;48.824;11.422;2023-03-13T10:42:27;96089.78;;;17.34;100.00
17054;BME280;8643;48.824;11.422;2023-03-13T10:45:05;96094.78;;;18.08;91.36
17054;BME280;8643;48.824;11.422;2023-03-13T10:47:34;96094.41;;;18.80;81.94
17054;BME280;8643;48.824;11.422;2023-03-13T10:50:04;96089.25;;;18.01;87.64
17054;BME280;8643;48.824;11.422;2023-03-13T10:52:41;96086.19;;;16.76;94.67
17054;BME280;8643;48.824;11.422;2023-03-13T10:55:12;96074.13;;;15.89;96.52
17054;BME280;8643;48.824;11.422;2023-03-13T10:57:56;96080.19;;;15.50;98.04
17054;BME280;8643;48.824;11.422;2023-03-13T11:00:35;96075.72;;;14.42;100.00
17054;BME280;8643;48.824;11.422;2023-03-13T11:03:13;96081.63;;;13.72;100.00
17054;BME280;8643;48.824;11.422;2023-03-13T11:05:55;96085.44;;;13.64;100.00
17054;BME280;8643;48.824;11.422;2023-03-13T11:08:26;96082.69;;;13.37;100.00
17054;BME280;8643;48.824;11.422;2023-03-13T11:10:58;96074.34;;;13.57;100.00
17054;BME280;8643;48.824;11.422;2023-03-13T11:13:38;96083.13;;;13.66;100.00
17054;BME280;8643;48.824;11.422;2023-03-13T11:16:18;96078.53;;;13.47;100.00
17054;BME280;8643;48.824;11.422;2023-03-13T11:19:09;96070.63;;;13.72;100.00
17054;BME280;8643;48.824;11.422;2023-03-13T11:22:06;96066.47;;;14.20;100.00
17054;BME280;8643;48.824;11.422;2023-03-13T11:24:45;96052.59;;;14.50;100.00
17054;BME280;8643;48.824;11.422;2023-03-13T11:27:26;96047.59;;;14.22;100.00
17054;BME280;8643;48.824;11.422;2023-03-13T11:30:12;96058.09;;;14.12;100.00
17054;BME280;8643;48.824;11.422;2023-03-13T11:32:52;96047.94;;;13.83;100.00
17054;BME280;8643;48.824;11.422;2023-03-13T11:35:39;96049.53;;;13.84;100.00
17054;BME280;8643;48.824;11.422;2023-03-13T11:38:18;96042.81;;;14.15;100.00
17054;BME280;8643;48.824;11.422;2023-03-13T11:40:59;96037.34;;;13.85;100.00
17054;BME280;8643;48.824;11.422;2023-03-13T11:43:49;96050.34;;;13.88;100.00
17054;BME280;8643;48.824;11.422;2023-03-13T11:46:39;96056.13;;;13.75;100.00
17054;BME280;8643;48.824;11.422;2023-03-13T11:49:40;96041.81;;;13.63;100.00
17054;BME280;8643;48.824;11.422;2023-03-13T11:52:42;96042.31;;;13.42;100.00
17054;BME280;8643;48.824;11.422;2023-03-13T11:55:28;96042.44;;;13.52;100.00
17054;BME280;8643;48.824;11.422;2023-03-13T11:58:30;96031.44;;;13.52;100.00
17054;BME280;8643;48.824;11.422;2023-03-13T12:01:10;96023.88;;;13.76;100.00
17054;BME280;8643;48.824;11.422;2023-03-13T12:03:51;96013.88;;;14.32;100.00
17054;BME280;8643;48.824;11.422;2023-03-13T12:06:29;96010.28;;;16.09;99.31
17054;BME280;8643;48.824;11.422;2023-03-13T12:09:05;96008.75;;;16.29;95.44
17054;BME280;8643;48.824;11.422;2023-03-13T12:11:53;96013.19;;;16.92;89.94
17054;BME280;8643;48.824;11.422;2023-03-13T12:14:32;95995.78;;;17.13;87.96
17054;BME280;8643;48.824;11.422;2023-03-13T12:17:09;95992.06;;;17.63;85.53
17054;BME280;8643;48.824;11.422;2023-03-13T12:19:48;95980.78;;;16.96;86.79
17054;BME280;8643;48.824;11.422;2023-03-13T12:22:28;95981.13;;;17.23;87.33
17054;BME280;8643;48.824;11.422;2023-03-13T12:25:03;95981.78;;;17.63;82.91
17054;BME280;8643;48.824;11.422;2023-03-13T12:27:40;95966.03;;;18.30;78.48
17054;BME280;8643;48.824;11.422;2023-03-13T12:30:23;95972.41;;;17.39;82.89
17054;BME280;8643;48.824;11.422;2023-03-13T12:33:04;95967.31;;;16.19;88.02
17054;BME280;8643;48.824;11.422;2023-03-13T12:35:39;95976.31;;;15.90;90.96
17054;BME280;8643;48.824;11.422;2023-03-13T12:38:19;95980.16;;;15.68;91.35
17054;BME280;8643;48.824;11.422;2023-03-13T12:41:00;95962.78;;;15.64;93.34
17054;BME280;8643;48.824;11.422;2023-03-13T12:43:35;95964.56;;;16.37;90.60
17054;BME280;8643;48.824;11.422;2023-03-13T12:46:32;95953.34;;;17.55;79.89
17054;BME280;8643;48.824;11.422;2023-03-13T12:49:51;95962.59;;;16.88;82.93
17054;BME280;8643;48.824;11.422;2023-03-13T12:52:53;95957.06;;;17.06;83.14
17054;BME280;8643;48.824;11.422;2023-03-13T12:56:14;95940.84;;;17.08;80.77
17054;BME280;8643;48.824;11.422;2023-03-13T12:58:49;95939.69;;;16.26;85.44
17054;BME280;8643;48.824;11.422;2023-03-13T13:01:30;95924.69;;;16.09;86.10
17054;BME280;8643;48.824;11.422;2023-03-13T13:04:05;95919.53;;;16.83;83.28
17054;BME280;8643;48.824;11.422;2023-03-13T13:06:55;95904.78;;;17.40;79.56
17054;BME280;8643;48.824;11.422;2023-03-13T13:09:30;95904.56;;;16.55;81.76
17054;BME280;8643;48.824;11.422;2023-03-13T13:12:11;95890.38;;;15.96;84.56
17054;BME280;8643;48.824;11.422;2023-03-13T13:15:02;95890.78;;;16.16;84.60
17054;BME280;8643;48.824;11.422;2023-03-13T13:17:50;95877.34;;;16.50;83.43
17054;BME280;8643;48.824;11.422;2023-03-13T13:20:38;95862.34;;;16.40;80.50
17054;BME280;8643;48.824;11.422;2023-03-13T13:23:29;95849.28;;;16.55;82.33
17054;BME280;8643;48.824;11.422;2023-03-13T13:26:46;95852.47;;;16.54;80.40
17054;BME280;8643;48.824;11.422;2023-03-13T13:29:56;95840.25;;;16.29;82.54
17054;BME280;8643;48.824;11.422;2023-03-13T13:32:47;95848.16;;;16.20;84.04
17054;BME280;8643;48.824;11.422;2023-03-13T13:35:34;95846.00;;;17.11;80.05
17054;BME280;8643;48.824;11.422;2023-03-13T13:38:29;95837.94;;;18.95;71.43
17054;BME280;8643;48.824;11.422;2023-03-13T13:41:24;95820.41;;;19.36;68.69
17054;BME280;8643;48.824;11.422;2023-03-13T13:44:27;95820.28;;;20.73;65.79